Time;durP1;ratioP1;P1;durP2;ratioP2;P2;SDS_P1;SDS_P2;PMS_P1;PMS_P2;Temp;Humidity;BMP_temperature;BMP_pressure;BME280_temperature;BME280_humidity;BME280_pressure;Samples;Min_cycle;Max_cycle;Signal;HPM_P1;HPM_P2
2023/08/01 00:01:29;;;;;;;11.20;4.90;;;19.60;99.90;;;;;;5055637;28;20094;-81
2023/08/01 00:03:55;;;;;;;12.35;4.57;;;19.50;99.90;;;;;;5056491;28;20067;-80
2023/08/01 00:06:22;;;;;;;10.90;5.93;;;19.40;99.90;;;;;;5055502;28;20033;-81
2023/08/01 00:08:48;;;;;;;12.43;8.40;;;19.40;99.90;;;;;;5056837;28;20463;-81
2023/08/01 00:11:15;;;;;;;18.20;10.27;;;19.40;99.90;;;;;;5056405;28;20562;-80
2023/08/01 00:13:43;;;;;;;20.92;13.43;;;19.40;99.90;;;;;;5055500;28;20053;-80
2023/08/01 00:16:09;;;;;;;27.98;14.93;;;19.40;99.90;;;;;;5055052;28;20040;-82
2023/08/01 00:18:35;;;;;;;24.75;15.30;;;19.30;99.90;;;;;;5055083;28;20386;-82
2023/08/01 00:21:00;;;;;;;23.13;14.77;;;19.30;99.90;;;;;;5055355;28;20025;-80
2023/08/01 00:23:26;;;;;;;29.33;15.63;;;19.30;99.90;;;;;;5055227;28;20032;-80
2023/08/01 00:25:52;;;;;;;25.20;16.33;;;19.30;99.90;;;;;;5053954;28;20087;-79
2023/08/01 00:28:18;;;;;;;27.67;16.10;;;19.30;99.90;;;;;;5055054;28;20021;-80
2023/08/01 00:30:44;;;;;;;25.90;16.38;;;19.20;99.90;;;;;;5056192;28;20024;-79
2023/08/01 00:33:10;;;;;;;33.42;16.10;;;19.20;99.90;;;;;;5054707;28;20025;-79
2023/08/01 00:35:35;;;;;;;26.20;15.98;;;19.30;99.90;;;;;;5056097;28;20032;-81
2023/08/01 00:38:01;;;;;;;24.27;14.85;;;19.20;99.90;;;;;;5055004;28;20032;-81
2023/08/01 00:40:31;;;;;;;28.65;14.43;;;19.20;99.90;;;;;;5055621;28;20048;-80
2023/08/01 00:42:57;;;;;;;21.50;13.57;;;19.30;99.90;;;;;;5054812;28;20108;-81
2023/08/01 00:45:24;;;;;;;21.20;13.45;;;19.30;99.90;;;;;;5055897;28;20166;-80
2023/08/01 00:47:51;;;;;;;21.42;11.77;;;19.30;99.90;;;;;;5056215;28;20013;-80
2023/08/01 00:50:20;;;;;;;20.92;11.05;;;19.20;99.90;;;;;;5056085;28;20025;-79
2023/08/01 00:52:50;;;;;;;15.45;9.23;;;19.20;99.90;;;;;;5054414;28;20025;-79
2023/08/01 00:55:16;;;;;;;16.27;9.30;;;;;;;;;;5055700;28;20110;-80
2023/08/01 00:57:43;;;;;;;22.83;8.25;;;;;;;;;;5055879;28;20102;-81
2023/08/01 01:00:09;;;;;;;15.82;7.90;;;19.10;99.90;;;;;;5054198;28;20025;-81
2023/08/01 01:02:36;;;;;;;15.00;8.00;;;19.10;99.90;;;;;;5054225;28;20025;-80
2023/08/01 01:05:02;;;;;;;12.52;6.90;;;;;;;;;;5054394;28;20387;-82
2023/08/01 01:07:29;;;;;;;13.20;6.55;;;;;;;;;;5055372;28;20096;-81
2023/08/01 01:09:55;;;;;;;12.70;6.97;;;;;;;;;;5054384;28;20021;-81
2023/08/01 01:12:21;;;;;;;10.32;6.10;;;;;;;;;;5055537;28;20033;-79
2023/08/01 01:14:47;;;;;;;10.93;6.03;;;19.00;99.90;;;;;;5054952;28;20032;-81
2023/08/01 01:17:14;;;;;;;15.10;5.32;;;19.00;99.90;;;;;;5055771;28;20391;-80
2023/08/01 01:19:40;;;;;;;10.50;5.70;;;18.90;99.90;;;;;;5055402;28;20023;-81
2023/08/01 01:22:09;;;;;;;19.45;6.07;;;18.80;99.90;;;;;;5053841;28;20123;-80
2023/08/01 01:24:36;;;;;;;13.55;5.68;;;18.80;99.90;;;;;;5055263;28;20115;-82
2023/08/01 02:43:37;;;;;;;18.25;5.90;;;17.80;99.90;;;;;;5062177;28;20474;-81
2023/08/01 02:46:05;;;;;;;10.32;4.57;;;17.80;99.90;;;;;;5056433;28;20452;-82
2023/08/01 02:48:32;;;;;;;9.82;4.57;;;17.80;99.90;;;;;;5049783;28;20036;-81
2023/08/01 02:50:58;;;;;;;8.68;4.38;;;17.80;99.90;;;;;;5049772;28;20057;-82
2023/08/01 02:53:24;;;;;;;8.43;4.13;;;17.80;99.90;;;;;;5049370;28;20052;-81
2023/08/01 02:55:50;;;;;;;8.20;3.63;;;17.90;99.90;;;;;;5057582;28;20021;-82
2023/08/01 02:58:16;;;;;;;11.80;4.38;;;17.90;99.90;;;;;;5055756;28;20503;-82
2023/08/01 03:00:41;;;;;;;12.68;4.25;;;18.00;99.90;;;;;;5049515;28;20117;-81
2023/08/01 03:03:07;;;;;;;9.57;3.80;;;18.00;99.90;;;;;;5049458;28;20037;-82
2023/08/01 03:05:37;;;;;;;12.57;3.78;;;18.00;99.90;;;;;;5046267;28;20026;-81
2023/08/01 03:08:03;;;;;;;10.07;4.03;;;18.00;99.90;;;;;;5032619;28;20025;-82
2023/08/01 03:10:29;;;;;;;10.07;3.88;;;18.00;99.90;;;;;;5049532;28;20447;-82
2023/08/01 03:12:55;;;;;;;7.30;3.67;;;18.00;99.90;;;;;;5049006;28;20075;-84
2023/08/01 03:15:21;;;;;;;8.77;3.47;;;18.00;99.90;;;;;;5049441;28;20059;-83
2023/08/01 03:17:46;;;;;;;8.00;3.50;;;18.00;99.90;;;;;;5049311;28;20025;-81
2023/08/01 03:20:12;;;;;;;9.27;4.10;;;18.00;99.90;;;;;;5048602;28;20033;-81
2023/08/01 03:22:41;;;;;;;7.65;4.28;;;18.00;99.90;;;;;;5049141;28;20123;-82
2023/08/01 03:25:08;;;;;;;10.50;4.50;;;18.00;99.90;;;;;;5048255;28;20032;-81
2023/08/01 03:27:34;;;;;;;7.72;3.95;;;17.90;99.90;;;;;;5049938;28;20071;-83
2023/08/01 03:30:01;;;;;;;14.15;4.57;;;17.90;99.90;;;;;;5049148;28;20051;-82
2023/08/01 03:32:27;;;;;;;12.02;4.15;;;18.00;99.90;;;;;;5050242;28;20459;-82
2023/08/01 03:34:53;;;;;;;13.73;4.55;;;18.00;99.90;;;;;;5048641;28;20159;-82
2023/08/01 03:37:19;;;;;;;8.82;4.80;;;18.00;99.90;;;;;;5049038;28;20472;-81
2023/08/01 03:39:45;;;;;;;10.05;4.53;;;18.00;99.90;;;;;;5050203;28;20547;-81
2023/08/01 03:42:10;;;;;;;9.43;4.68;;;18.10;99.90;;;;;;5048306;28;20136;-81
2023/08/01 03:44:36;;;;;;;11.35;5.43;;;18.10;99.90;;;;;;5050355;28;20033;-81
2023/08/01 03:47:02;;;;;;;10.70;3.92;;;18.10;99.90;;;;;;5049791;28;20021;-81
2023/08/01 03:49:28;;;;;;;8.48;4.22;;;18.10;99.90;;;;;;5048224;28;20032;-81
2023/08/01 03:51:53;;;;;;;15.20;4.32;;;18.20;99.90;;;;;;5048854;28;20036;-82
2023/08/01 03:54:19;;;;;;;12.43;4.70;;;18.20;99.90;;;;;;5039909;28;20026;-81
2023/08/01 03:56:45;;;;;;;9.07;4.10;;;18.10;99.90;;;;;;5041210;28;20036;-81
2023/08/01 03:59:13;;;;;;;10.15;4.80;;;18.20;99.90;;;;;;5041472;28;20063;-81
2023/08/01 04:01:39;;;;;;;14.10;4.88;;;18.10;99.90;;;;;;5036279;28;20029;-82
2023/08/01 04:04:04;;;;;;;10.07;4.75;;;18.20;99.90;;;;;;5048576;28;20083;-82
2023/08/01 04:06:30;;;;;;;10.73;4.43;;;18.20;99.90;;;;;;5035284;28;20099;-81
2023/08/01 04:08:56;;;;;;;11.35;4.90;;;18.20;99.90;;;;;;5037462;28;20440;-82
2023/08/01 04:11:22;;;;;;;10.63;4.93;;;18.20;99.90;;;;;;5036496;28;20060;-81
2023/08/01 04:13:48;;;;;;;9.55;4.22;;;18.20;99.90;;;;;;5037496;28;20049;-81
2023/08/01 04:16:14;;;;;;;13.95;4.57;;;18.30;99.90;;;;;;5046984;28;20040;-81
2023/08/01 04:18:40;;;;;;;12.68;4.32;;;18.40;99.90;;;;;;5038708;28;20032;-82
2023/08/01 04:21:07;;;;;;;12.40;5.07;;;18.40;99.90;;;;;;5042695;28;20031;-81
2023/08/01 04:23:33;;;;;;;13.25;5.43;;;18.50;99.90;;;;;;5037031;28;20040;-85
2023/08/01 04:25:59;;;;;;;14.93;7.15;;;18.50;99.90;;;;;;5052360;28;20021;-82
2023/08/01 04:28:25;;;;;;;19.52;9.25;;;18.60;99.90;;;;;;5041056;28;20092;-83
2023/08/01 04:30:52;;;;;;;17.77;8.63;;;18.60;99.90;;;;;;5040679;28;20017;-84
2023/08/01 04:33:18;;;;;;;18.75;8.10;;;18.60;99.90;;;;;;5035381;28;20032;-83
2023/08/01 04:35:44;;;;;;;17.30;9.18;;;18.70;99.90;;;;;;5042872;28;20032;-82
2023/08/01 04:38:13;;;;;;;16.25;8.55;;;18.80;99.90;;;;;;5034619;28;20113;-83
2023/08/01 04:40:39;;;;;;;19.00;9.10;;;18.80;99.90;;;;;;5034293;28;20036;-82
2023/08/01 04:43:04;;;;;;;16.25;7.30;;;18.90;99.90;;;;;;5047492;28;20045;-81
2023/08/01 04:45:30;;;;;;;15.88;6.68;;;19.10;99.90;;;;;;5046374;28;20451;-82
2023/08/01 04:47:56;;;;;;;14.32;5.65;;;19.10;99.90;;;;;;5049292;28;20024;-82
2023/08/01 04:50:22;;;;;;;10.63;5.97;;;19.20;99.90;;;;;;5037918;28;20022;-84
2023/08/01 04:52:47;;;;;;;14.15;5.05;;;19.30;99.90;;;;;;5032193;28;20033;-83
2023/08/01 04:55:14;;;;;;;9.48;4.95;;;19.40;99.90;;;;;;5036142;28;20021;-81
2023/08/01 04:57:40;;;;;;;10.43;4.25;;;;;;;;;;5046306;28;20075;-83
2023/08/01 05:00:06;;;;;;;9.93;4.50;;;;;;;;;;5034542;28;20464;-81
2023/08/01 05:02:32;;;;;;;10.38;3.85;;;19.60;99.90;;;;;;5046065;28;20029;-84
2023/08/01 05:04:57;;;;;;;9.25;3.70;;;19.70;99.90;;;;;;5040801;28;20120;-82
2023/08/01 05:07:23;;;;;;;12.15;4.15;;;19.90;99.90;;;;;;5040745;28;20025;-83
2023/08/01 05:09:49;;;;;;;10.43;3.78;;;20.00;99.90;;;;;;5046865;28;20025;-82
2023/08/01 05:12:15;;;;;;;10.55;4.15;;;;;;;;;;5045279;28;20029;-82
2023/08/01 05:14:41;;;;;;;9.57;4.20;;;;;;;;;;5041391;28;20029;-83
2023/08/01 05:17:07;;;;;;;13.02;4.18;;;;;;;;;;5050062;28;20100;-80
2023/08/01 05:19:33;;;;;;;8.23;3.88;;;;;;;;;;5049469;28;20022;-80
2023/08/01 05:21:59;;;;;;;14.45;4.30;;;20.50;99.90;;;;;;5044517;28;20348;-80
2023/08/01 05:24:25;;;;;;;11.70;4.18;;;20.60;99.90;;;;;;5043815;28;20521;-79
2023/08/01 05:26:51;;;;;;;15.85;4.43;;;20.70;99.90;;;;;;5033395;28;20049;-81
2023/08/01 05:29:16;;;;;;;11.10;4.10;;;20.60;99.90;;;;;;5033422;28;20495;-80
2023/08/01 05:31:42;;;;;;;10.23;4.35;;;20.70;99.90;;;;;;5034789;28;20452;-80
2023/08/01 05:34:08;;;;;;;8.50;3.80;;;20.70;99.90;;;;;;5033495;28;20029;-80
2023/08/01 05:36:33;;;;;;;10.30;3.92;;;20.80;99.90;;;;;;5034092;28;20032;-80
2023/08/01 05:38:59;;;;;;;13.30;4.22;;;20.90;99.90;;;;;;5035023;28;20021;-79
2023/08/01 05:41:25;;;;;;;9.10;4.38;;;20.90;99.90;;;;;;5033063;28;20029;-80
2023/08/01 05:43:51;;;;;;;7.25;3.78;;;21.00;99.90;;;;;;5033074;28;20049;-79
2023/08/01 06:49:15;;;;;;;10.43;2.83;;;;;;;;;;5070961;28;20453;-80
2023/08/01 06:54:24;;;;;;;6.30;2.63;;;;;;;;;;5091082;28;20322;-78
2023/08/01 06:56:50;;;;;;;3.53;2.05;;;;;;;;;;5091152;28;20025;-78
2023/08/01 06:59:17;;;;;;;4.07;2.15;;;;;;;;;;5090038;28;20020;-79
2023/08/01 07:01:43;;;;;;;5.55;2.50;;;;;;;;;;5093213;28;20020;-78
2023/08/01 07:04:10;;;;;;;13.18;2.80;;;;;;;;;;5096437;28;20016;-77
2023/08/01 07:06:36;;;;;;;3.92;2.17;;;;;;;;;;5096153;28;20073;-78
2023/08/01 07:09:02;;;;;;;5.45;2.47;;;;;;;;;;5098208;28;20012;-79
2023/08/01 07:11:29;;;;;;;5.90;1.90;;;;;;;;;;5095003;28;20372;-80
2023/08/01 07:13:55;;;;;;;7.25;2.55;;;;;;;;;;5091083;28;20025;-80
2023/08/01 07:16:22;;;;;;;7.22;2.45;;;;;;;;;;5090668;28;20042;-78
2023/08/01 07:18:48;;;;;;;4.85;2.50;;;;;;;;;;5089808;28;20020;-79
2023/08/01 07:21:15;;;;;;;4.03;2.35;;;;;;;;;;5097976;28;20085;-79
2023/08/01 07:23:41;;;;;;;5.82;2.58;;;;;;;;;;5089720;28;20028;-81
2023/08/01 07:26:07;;;;;;;4.10;2.25;;;;;;;;;;5089333;28;20020;-80
2023/08/01 07:28:33;;;;;;;6.88;2.97;;;;;;;;;;5089089;28;20021;-81
2023/08/01 07:31:08;;;;;;;6.13;2.33;;;;;;;;;;5090361;28;20019;-80
2023/08/01 07:33:35;;;;;;;4.65;2.20;;;;;;;;;;5090570;28;20055;-81
2023/08/01 07:36:01;;;;;;;3.15;1.80;;;;;;;;;;5090295;28;20024;-81
2023/08/01 07:38:27;;;;;;;5.20;2.00;;;;;;;;;;5091951;28;20371;-80
2023/08/01 07:40:54;;;;;;;8.05;1.90;;;;;;;;;;5097785;28;20420;-80
2023/08/01 07:43:20;;;;;;;4.93;2.13;;;;;;;;;;5102259;28;20022;-81
2023/08/01 07:45:50;;;;;;;3.20;1.90;;;;;;;;;;5098969;28;20039;-81
2023/08/01 07:48:16;;;;;;;3.83;1.95;;;;;;;;;;5090816;28;20488;-77
2023/08/01 07:50:42;;;;;;;4.70;2.10;;;;;;;;;;5099716;28;20065;-78
2023/08/01 07:53:08;;;;;;;8.45;2.20;;;;;;;;;;5088460;28;20048;-78
2023/08/01 07:55:35;;;;;;;3.47;1.83;;;;;;;;;;5088872;28;20020;-79
2023/08/01 07:58:01;;;;;;;3.65;1.83;;;;;;;;;;5088802;28;20470;-80
2023/08/01 08:00:27;;;;;;;4.80;1.92;;;;;;;;;;5089763;28;20069;-78
2023/08/01 08:02:54;;;;;;;3.25;1.98;;;;;;;;;;5088433;28;20085;-80
2023/08/01 08:05:20;;;;;;;4.13;1.98;;;;;;;;;;5077333;28;20409;-80
2023/08/01 08:07:46;;;;;;;2.50;1.58;;;;;;;;;;5078628;28;20017;-81
2023/08/01 08:10:12;;;;;;;3.70;2.00;;;;;;;;;;5074790;28;20365;-80
2023/08/01 08:12:39;;;;;;;2.30;1.40;;;;;;;;;;5086831;28;20446;-80
2023/08/01 08:15:05;;;;;;;7.10;2.20;;;;;;;;;;5078337;28;20047;-80
2023/08/01 08:17:31;;;;;;;3.90;1.88;;;;;;;;;;5073380;28;20020;-80
2023/08/01 08:19:57;;;;;;;4.30;1.90;;;;;;;;;;5082827;28;20035;-80
2023/08/01 08:22:23;;;;;;;5.57;2.17;;;;;;;;;;5089437;28;20016;-80
2023/08/01 08:24:49;;;;;;;3.95;2.28;;;;;;;;;;5085326;28;20020;-80
2023/08/01 08:27:16;;;;;;;4.88;2.30;;;;;;;;;;5075491;28;20021;-80
2023/08/01 08:29:42;;;;;;;5.97;1.70;;;;;;;;;;5076342;28;20027;-80
2023/08/01 08:32:08;;;;;;;4.68;2.28;;;;;;;;;;5075674;28;20028;-79
2023/08/01 08:34:34;;;;;;;4.18;2.03;;;;;;;;;;5090361;28;20085;-80
2023/08/01 08:37:00;;;;;;;5.47;1.77;;;;;;;;;;5085733;28;20012;-80
2023/08/01 08:39:26;;;;;;;5.30;1.75;;;;;;;;;;5080098;28;20073;-78
2023/08/01 08:41:53;;;;;;;3.33;1.90;;;;;;;;;;5085972;28;20103;-80
2023/08/01 08:46:36;;;;;;;7.60;2.55;;;;;;;;;;5070712;28;20387;-79
2023/08/01 08:49:04;;;;;;;4.03;2.50;;;;;;;;;;5050321;28;20033;-78
2023/08/01 08:51:32;;;;;;;4.88;2.05;;;;;;;;;;5066353;28;20098;-80
2023/08/01 08:53:58;;;;;;;7.53;2.63;;;;;;;;;;5070727;28;20012;-80
2023/08/01 08:56:24;;;;;;;5.05;2.63;;;;;;;;;;5070710;28;20032;-79
2023/08/01 08:58:50;;;;;;;5.93;2.65;;;;;;;;;;5070682;28;20039;-78
2023/08/01 09:01:18;;;;;;;4.90;2.67;;;;;;;;;;5069111;28;20020;-79
2023/08/01 09:03:45;;;;;;;6.72;2.00;;;;;;;;;;5069045;28;20029;-82
2023/08/01 09:06:18;;;;;;;3.38;2.08;;;;;;;;;;5068412;28;20477;-80
2023/08/01 09:09:04;;;;;;;5.07;1.70;;;;;;;;;;5067415;28;20025;-80
2023/08/01 09:11:39;;;;;;;2.53;1.50;;;;;;;;;;5067595;28;20029;-80
2023/08/01 09:14:05;;;;;;;3.38;1.92;;;;;;;;;;5066674;28;20431;-80
2023/08/01 09:16:33;;;;;;;4.13;2.03;;;;;;;;;;5066391;28;20094;-81
2023/08/01 09:19:00;;;;;;;4.63;1.73;;;;;;;;;;5067791;28;20078;-80
2023/08/01 09:21:26;;;;;;;9.30;2.00;;;;;;;;;;5068000;28;20095;-79
2023/08/01 09:23:52;;;;;;;5.78;1.75;;;;;;;;;;5069854;28;20017;-80
2023/08/01 09:26:19;;;;;;;2.70;1.50;;;;;;;;;;5067510;28;20024;-80
2023/08/01 09:28:56;;;;;;;3.08;1.80;;;;;;;;;;5062240;28;20027;-79
2023/08/01 09:31:49;;;;;;;3.10;1.67;;;;;;;;;;5068127;28;20021;-78
2023/08/01 09:34:19;;;;;;;4.72;1.90;;;;;;;;;;5025452;28;20025;-78
2023/08/01 09:36:45;;;;;;;6.85;1.95;;;;;;;;;;5010934;28;20495;-79
2023/08/01 09:39:16;;;;;;;3.13;1.58;;;;;;;;;;5043057;28;20025;-81
2023/08/01 09:41:42;;;;;;;4.40;1.53;;;;;;;;;;5027255;28;20028;-80
2023/08/01 09:44:12;;;;;;;2.40;1.48;;;;;;;;;;5021857;28;20024;-79
2023/08/01 09:46:38;;;;;;;7.55;1.52;;;;;;;;;;5027422;28;20030;-79
2023/08/01 09:49:08;;;;;;;3.83;1.52;;;;;;;;;;5024527;28;20462;-79
2023/08/01 09:51:34;;;;;;;2.88;1.67;;;;;;;;;;5011248;28;20546;-81
2023/08/01 09:54:00;;;;;;;3.70;1.73;;;;;;;;;;5028055;28;20025;-80
2023/08/01 09:56:27;;;;;;;3.05;1.70;;;;;;;;;;4986093;28;20030;-80
2023/08/01 09:58:55;;;;;;;4.13;1.60;;;;;;;;;;5011632;28;20030;-82
2023/08/01 10:01:22;;;;;;;3.25;1.60;;;;;;;;;;5014512;28;20030;-81
2023/08/01 10:03:48;;;;;;;4.68;1.48;;;;;;;;;;5013195;28;20504;-81
2023/08/01 10:06:18;;;;;;;2.30;1.60;;;;;;;;;;5013433;28;20061;-79
2023/08/01 10:08:45;;;;;;;2.40;1.42;;;;;;;;;;5013332;28;20038;-84
2023/08/01 10:11:12;;;;;;;2.05;1.10;;;;;;;;;;5036809;28;20032;-79
2023/08/01 10:13:38;;;;;;;5.53;1.35;;;;;;;;;;5055532;28;20448;-79
2023/08/01 10:16:06;;;;;;;3.22;1.40;;;;;;;;;;5053623;28;20029;-80
2023/08/01 10:18:32;;;;;;;2.58;1.60;;;;;;;;;;5054309;28;20070;-80
2023/08/01 10:20:59;;;;;;;4.75;1.73;;;;;;;;;;5054319;28;20009;-80
2023/08/01 10:23:26;;;;;;;4.78;1.50;;;;;;;;;;5055186;28;20459;-82
2023/08/01 10:25:52;;;;;;;4.32;1.67;;;;;;;;;;5053660;28;20029;-81
2023/08/01 10:28:18;;;;;;;3.50;1.55;;;;;;;;;;5055252;28;20017;-82
2023/08/01 10:30:44;;;;;;;3.53;1.45;;;;;;;;;;5046477;28;20116;-79
2023/08/01 10:33:12;;;;;;;7.32;1.65;;;;;;;;;;5055202;28;20028;-78
2023/08/01 10:35:39;;;;;;;3.00;1.60;;;;;;;;;;5054198;28;20032;-82
2023/08/01 10:38:12;;;;;;;10.45;1.75;;;;;;;;;;5055061;28;20025;-82
2023/08/01 10:40:40;;;;;;;3.45;1.48;;;;;;;;;;5053673;28;20049;-80
2023/08/01 10:43:06;;;;;;;5.60;2.63;;;;;;;;;;5055163;28;20027;-83
2023/08/01 10:45:32;;;;;;;5.03;1.50;;;;;;;;;;5053728;28;20040;-81
2023/08/01 10:48:09;;;;;;;3.28;2.13;;;;;;;;;;5054903;28;20045;-82
2023/08/01 10:50:35;;;;;;;2.75;1.33;;;;;;;;;;5055824;28;20029;-83
2023/08/01 10:53:05;;;;;;;3.80;1.80;;;;;;;;;;5053986;28;20017;-82
2023/08/01 10:55:40;;;;;;;1.17;0.90;;;;;;;;;;5054206;28;20043;-82
2023/08/01 10:58:07;;;;;;;2.90;1.60;;;;;;;;;;5053421;28;20021;-83
2023/08/01 11:00:33;;;;;;;4.22;1.23;;;;;;;;;;5054091;28;20021;-83
2023/08/01 11:02:59;;;;;;;4.55;1.40;;;;;;;;;;5054028;28;20021;-82
2023/08/01 11:05:26;;;;;;;1.92;1.30;;;;;;;;;;5053793;28;20471;-81
2023/08/01 11:07:56;;;;;;;3.05;1.60;;;;;;;;;;5053310;28;20017;-80
2023/08/01 11:10:23;;;;;;;3.45;1.80;;;;;;;;;;5053900;28;20087;-82
2023/08/01 11:12:49;;;;;;;3.85;1.70;;;;;;;;;;5055087;28;20025;-82
2023/08/01 11:15:15;;;;;;;3.85;1.65;;;;;;;;;;5054913;28;20422;-82
2023/08/01 11:17:42;;;;;;;3.97;1.60;;;;;;;;;;5053880;28;20112;-81
2023/08/01 11:20:10;;;;;;;4.20;1.50;;;;;;;;;;5044949;28;20017;-82
2023/08/01 11:22:36;;;;;;;3.50;1.30;;;;;;;;;;5053714;28;20154;-83
2023/08/01 11:25:03;;;;;;;4.43;1.40;;;;;;;;;;5053536;28;20362;-82
2023/08/01 11:27:29;;;;;;;2.95;1.40;;;;;;;;;;5053283;28;20434;-82
2023/08/01 11:29:55;;;;;;;5.80;1.67;;;;;;;;;;5053511;28;20459;-82
2023/08/01 11:32:22;;;;;;;2.65;1.27;;;;;;;;;;5054523;28;20025;-82
2023/08/01 11:34:49;;;;;;;9.85;1.40;;;;;;;;;;5054248;28;20021;-83
2023/08/01 11:37:16;;;;;;;2.65;1.33;;;;;;;;;;5054935;28;20028;-82
2023/08/01 11:39:42;;;;;;;2.28;1.15;;;;;;;;;;5054637;28;20078;-81
2023/08/01 11:42:14;;;;;;;4.80;1.98;;;;;;;;;;5054004;28;20021;-81
2023/08/01 11:44:40;;;;;;;12.73;1.50;;;;;;;;;;5054480;28;20048;-82
2023/08/01 11:47:11;;;;;;;2.35;1.48;;;;;;;;;;5052801;28;20508;-81
2023/08/01 11:49:37;;;;;;;3.65;1.23;;;;;;;;;;5053416;28;20025;-83
2023/08/01 11:52:03;;;;;;;5.80;1.52;;;;;;;;;;5053111;28;20025;-82
2023/08/01 11:54:29;;;;;;;3.15;1.63;;;;;;;;;;5054189;28;20108;-80
2023/08/01 11:57:01;;;;;;;4.30;1.17;;;;;;;;;;5053102;28;20021;-81
2023/08/01 11:59:27;;;;;;;2.28;1.30;;;;;;;;;;5053221;28;20021;-81
2023/08/01 12:01:53;;;;;;;3.38;1.25;;;;;;;;;;5052610;28;20103;-81
2023/08/01 12:04:26;;;;;;;3.05;1.52;;;;;;;;;;5052777;28;20020;-82
2023/08/01 12:06:52;;;;;;;1.98;1.38;;;;;;;;;;5052747;28;20040;-81
2023/08/01 12:09:20;;;;;;;2.83;1.38;;;;;;;;;;5053808;28;20078;-81
2023/08/01 12:11:46;;;;;;;6.78;1.70;;;;;;;;;;5054042;28;20021;-82
2023/08/01 12:14:13;;;;;;;3.65;1.67;;;;;;;;;;5052699;28;20039;-81
2023/08/01 12:16:40;;;;;;;2.45;1.23;;;;;;;;;;5053729;28;20043;-82
2023/08/01 12:19:07;;;;;;;2.22;1.30;;;;;;;;;;5053592;28;20017;-82
2023/08/01 12:21:33;;;;;;;3.33;1.40;;;;;;;;;;5052737;28;20029;-81
2023/08/01 12:24:00;;;;;;;2.78;1.42;;;;;;;;;;5053314;28;20049;-81
2023/08/01 12:26:26;;;;;;;4.10;1.55;;;;;;;;;;5051509;28;20336;-80
2023/08/01 12:28:52;;;;;;;3.05;1.20;;;;;;;;;;5052198;28;20029;-82
2023/08/01 12:31:19;;;;;;;2.90;1.45;;;;;;;;;;5052356;28;20016;-82
2023/08/01 12:33:46;;;;;;;2.85;1.58;;;;;;;;;;5054056;28;20025;-81
2023/08/01 12:36:13;;;;;;;2.17;1.25;;;;;;;;;;5053119;28;20020;-81
2023/08/01 12:38:39;;;;;;;4.20;1.70;;;;;;;;;;5052356;28;20359;-81
2023/08/01 12:41:05;;;;;;;3.13;1.58;;;;;;;;;;5053221;28;20028;-81
2023/08/01 12:43:31;;;;;;;5.93;1.40;;;;;;;;;;5051584;28;20017;-82
2023/08/01 12:45:59;;;;;;;2.22;1.08;;;;;;;;;;5051034;28;20041;-80
2023/08/01 12:48:26;;;;;;;2.13;1.42;;;;;;;;;;5053248;28;20538;-83
2023/08/01 12:50:53;;;;;;;2.33;1.40;;;;;;;;;;5051906;28;20025;-81
2023/08/01 12:53:19;;;;;;;2.65;1.17;;;;;;;;;;5052288;28;20013;-83
2023/08/01 12:55:46;;;;;;;8.15;1.42;;;;;;;;;;5053661;28;20036;-82
2023/08/01 12:58:12;;;;;;;3.03;1.40;;;;;;;;;;5051990;28;20028;-81
2023/08/01 13:00:39;;;;;;;4.28;1.60;;;;;;;;;;5051952;28;20029;-82
2023/08/01 13:03:06;;;;;;;3.25;1.50;;;;;;;;;;5052261;28;20047;-82
2023/08/01 13:05:34;;;;;;;2.20;1.40;;;;;;;;;;5050743;28;20083;-82
2023/08/01 13:08:00;;;;;;;2.35;1.45;;;;;;;;;;5050895;28;20028;-82
2023/08/01 13:10:31;;;;;;;3.17;1.15;;;;;;;;;;5052350;28;20115;-82
2023/08/01 13:12:57;;;;;;;6.15;1.38;;;;;;;;;;5051765;28;20040;-81
2023/08/01 13:15:23;;;;;;;3.30;1.63;;;;;;;;;;5052143;28;20028;-81
2023/08/01 13:17:50;;;;;;;2.15;1.48;;;;;;;;;;5051759;28;20033;-82
2023/08/01 13:20:16;;;;;;;8.07;1.30;;;;;;;;;;5053272;28;20455;-82
2023/08/01 13:22:43;;;;;;;2.97;1.77;;;;;;;;;;5052093;28;20119;-82
2023/08/01 13:25:09;;;;;;;2.60;1.73;;;;;;;;;;5051485;28;20110;-80
2023/08/01 13:27:36;;;;;;;2.67;1.27;;;;;;;;;;5052016;28;20032;-82
2023/08/01 13:30:02;;;;;;;2.22;1.25;;;;;;;;;;5053218;28;20447;-80
2023/08/01 13:32:28;;;;;;;3.22;1.25;;;;;;;;;;5054090;28;20021;-83
2023/08/01 13:34:54;;;;;;;2.38;1.27;;;;;;;;;;5056816;28;20506;-80
2023/08/01 13:37:21;;;;;;;4.10;1.40;;;;;;;;;;5055706;28;20017;-81
2023/08/01 13:39:47;;;;;;;3.15;1.38;;;;;;;;;;5055403;28;20021;-81
2023/08/01 13:42:13;;;;;;;2.13;1.17;;;;;;;;;;5056628;28;20028;-81
2023/08/01 13:44:40;;;;;;;2.17;1.35;;;;;;;;;;5055282;28;20442;-81
2023/08/01 13:47:06;;;;;;;4.82;1.50;;;;;;;;;;5056173;28;20021;-81
2023/08/01 13:49:32;;;;;;;2.95;1.48;;;;;;;;;;5056828;28;20021;-83
2023/08/01 13:51:59;;;;;;;3.25;1.63;;;;;;;;;;5055469;28;20119;-81
2023/08/01 13:54:25;;;;;;;2.88;1.30;;;;;;;;;;5055108;28;20047;-81
2023/08/01 13:56:51;;;;;;;1.95;1.20;;;;;;;;;;5056623;28;20100;-81
2023/08/01 13:59:17;;;;;;;4.03;1.70;;;;;;;;;;5055288;28;20032;-81
2023/08/01 14:01:44;;;;;;;4.32;1.83;;;;;;;;;;5056489;28;20023;-81
2023/08/01 14:04:10;;;;;;;6.63;1.63;;;;;;;;;;5056198;28;20475;-83
2023/08/01 14:06:36;;;;;;;3.88;1.83;;;;;;;;;;5054991;28;20033;-81
2023/08/01 14:09:02;;;;;;;3.15;1.90;;;;;;;;;;5054601;28;20355;-81
2023/08/01 14:11:28;;;;;;;3.20;1.67;;;;;;;;;;5056506;28;20028;-81
2023/08/01 14:13:54;;;;;;;5.93;2.10;;;;;;;;;;5054691;28;20463;-83
2023/08/01 14:16:20;;;;;;;3.45;1.42;;;;;;;;;;5053837;28;20036;-80
2023/08/01 14:18:46;;;;;;;4.53;1.58;;;;;;;;;;5055988;28;20029;-81
2023/08/01 14:21:13;;;;;;;3.80;1.50;;;;;;;;;;5054470;28;20028;-83
2023/08/01 14:23:40;;;;;;;2.95;1.25;;;;;;;;;;5056192;28;20451;-82
2023/08/01 14:26:06;;;;;;;4.35;1.30;;;;;;;;;;5055581;28;20044;-83
2023/08/01 14:28:32;;;;;;;4.75;1.70;;;;;;;;;;5054604;28;20021;-82
2023/08/01 14:31:01;;;;;;;4.65;1.52;;;;;;;;;;5054138;28;20044;-81
2023/08/01 14:33:27;;;;;;;3.42;1.52;;;;;;;;;;5055172;28;20027;-81
2023/08/01 14:35:54;;;;;;;6.80;1.70;;;;;;;;;;5054237;28;20028;-81
2023/08/01 14:38:20;;;;;;;3.70;1.48;;;;;;;;;;5055821;28;20020;-81
2023/08/01 14:40:46;;;;;;;2.97;1.50;;;;;;;;;;5054490;28;20040;-81
2023/08/01 14:43:12;;;;;;;4.72;1.48;;;;;;;;;;5055260;28;20096;-80
2023/08/01 14:45:39;;;;;;;2.85;1.30;;;;;;;;;;5045666;28;20085;-79
2023/08/01 14:48:06;;;;;;;4.95;1.67;;;;;;;;;;5055299;28;20025;-82
2023/08/01 14:50:32;;;;;;;5.63;1.63;;;;;;;;;;5054103;28;20021;-80
2023/08/01 14:52:58;;;;;;;4.60;1.65;;;;;;;;;;5055579;28;20478;-80
2023/08/01 14:55:24;;;;;;;2.63;1.27;;;;;;;;;;5054295;28;20025;-81
2023/08/01 14:57:50;;;;;;;2.65;1.40;;;;;;;;;;5053895;28;20028;-81
2023/08/01 15:00:17;;;;;;;2.17;1.38;;;;;;;;;;5055391;28;20021;-81
2023/08/01 15:02:43;;;;;;;2.88;1.35;;;;;;;;;;5054241;28;20017;-81
2023/08/01 15:05:09;;;;;;;4.45;1.27;;;;;;;;;;5054846;28;20028;-83
2023/08/01 15:07:35;;;;;;;2.83;1.50;;;;;;;;;;5055451;28;20482;-82
2023/08/01 15:10:01;;;;;;;4.10;1.90;;;;;;;;;;5053600;28;20025;-82
2023/08/01 15:12:27;;;;;;;2.15;1.27;;;;;;;;;;5055271;28;20028;-81
2023/08/01 15:14:54;;;;;;;2.72;1.40;;;;;;;;;;5053974;28;20025;-82
2023/08/01 15:17:20;;;;;;;2.38;1.20;;;;;;;;;;5054748;28;20016;-82
2023/08/01 15:19:47;;;;;;;1.95;1.23;;;;;;;;;;5055030;28;20048;-81
2023/08/01 15:22:16;;;;;;;4.35;1.70;;;;;;;;;;5055057;28;20463;-81
2023/08/01 15:24:43;;;;;;;2.60;1.38;;;;;;;;;;5052738;28;20029;-80
2023/08/01 15:27:09;;;;;;;3.00;1.77;;;;;;;;;;5054785;28;20031;-80
2023/08/01 15:29:35;;;;;;;3.50;1.52;;;;;;;;;;5054631;28;20019;-81
2023/08/01 15:32:01;;;;;;;3.88;1.20;;;;;;;;;;5054162;28;20025;-83
2023/08/01 15:34:27;;;;;;;2.88;1.40;;;;;;;;;;5054848;28;20024;-82
2023/08/01 15:36:53;;;;;;;3.25;1.40;;;;;;;;;;5053161;28;20021;-82
2023/08/01 15:39:20;;;;;;;2.75;1.67;;;;;;;;;;5053033;28;20013;-81
2023/08/01 15:41:46;;;;;;;3.30;1.50;;;;;;;;;;5054648;28;20056;-80
2023/08/01 15:44:13;;;;;;;3.45;1.75;;;;;;;;;;5053758;28;20070;-82
2023/08/01 15:46:39;;;;;;;6.22;1.77;;;;;;;;;;5054192;28;20032;-81
2023/08/01 15:49:05;;;;;;;1.70;1.20;;;;;;;;;;5052794;28;20025;-83
2023/08/01 15:51:32;;;;;;;3.45;1.48;;;;;;;;;;5054797;28;20459;-83
2023/08/01 15:53:58;;;;;;;4.25;1.52;;;;;;;;;;5052372;28;20108;-82
2023/08/01 15:56:24;;;;;;;5.97;1.38;;;;;;;;;;5053189;28;20108;-82
2023/08/01 15:58:50;;;;;;;4.07;1.35;;;;;;;;;;5052825;28;20021;-83
2023/08/01 16:01:16;;;;;;;3.30;1.40;;;;;;;;;;5052999;28;20456;-82
2023/08/01 16:03:43;;;;;;;3.08;1.25;;;;;;;;;;5054147;28;20063;-81
2023/08/01 16:06:09;;;;;;;3.05;1.35;;;;;;;;;;5052554;28;20031;-83
2023/08/01 20:55:11;;;;;;;9.15;3.90;;;;;;;;;;5151380;27;20840;-82
2023/08/01 20:57:38;;;;;;;9.60;4.05;;;;;;;;;;5147039;27;20023;-81
2023/08/01 21:00:05;;;;;;;11.70;3.78;;;;;;;;;;5152514;27;20110;-83
2023/08/01 21:02:31;;;;;;;10.15;3.65;;;;;;;;;;5134070;27;20144;-81
2023/08/01 21:04:57;;;;;;;6.68;3.17;;;;;;;;;;5133949;27;20079;-85
2023/08/01 21:07:23;;;;;;;10.38;3.00;;;;;;;;;;5151908;27;20015;-81
2023/08/01 21:09:49;;;;;;;10.68;2.50;;;;;;;;;;5133589;27;20019;-80